Time;durP1;ratioP1;P1;durP2;ratioP2;P2;SDS_P1;SDS_P2;PMS_P1;PMS_P2;Temp;Humidity;BMP_temperature;BMP_pressure;BME280_temperature;BME280_humidity;BME280_pressure;Samples;Min_cycle;Max_cycle;Signal;HPM_P1;HPM_P2
2022/12/07 00:01:10;;;;;;;0.00;0.00;;;1.80;99.90;;;;;;5062795;28;20132;-78
2022/12/07 00:03:37;;;;;;;0.25;0.25;;;2.00;99.90;;;;;;5062863;28;20054;-78
2022/12/07 00:06:04;;;;;;;0.00;0.00;;;2.10;99.90;;;;;;5062578;28;20048;-78
2022/12/07 00:08:31;;;;;;;0.00;0.00;;;2.20;99.90;;;;;;5062570;28;20094;-78
2022/12/07 00:11:05;;;;;;;0.43;0.43;;;2.30;99.90;;;;;;5062012;28;20040;-78
2022/12/07 00:13:32;;;;;;;0.00;0.00;;;2.20;99.90;;;;;;5062580;28;20052;-78
2022/12/07 00:16:17;;;;;;;0.45;0.45;;;2.10;99.90;;;;;;5062818;28;20055;-78
2022/12/07 00:18:44;;;;;;;0.00;0.00;;;2.20;99.90;;;;;;5062247;28;20624;-77
2022/12/07 00:21:18;;;;;;;0.00;0.00;;;2.10;99.90;;;;;;5062660;28;20059;-77
2022/12/07 00:23:46;;;;;;;0.00;0.00;;;2.10;99.90;;;;;;5063071;28;20044;-78
2022/12/07 00:26:14;;;;;;;0.00;0.00;;;2.00;99.90;;;;;;5062403;28;20060;-78
2022/12/07 00:28:39;;;;;;;0.10;0.10;;;2.00;99.90;;;;;;5062043;28;20402;-78
2022/12/07 00:31:10;;;;;;;0.00;0.00;;;2.00;99.90;;;;;;5062305;28;20052;-76
2022/12/07 00:33:36;;;;;;;0.00;0.00;;;2.00;99.90;;;;;;5062564;28;20059;-77
2022/12/07 00:36:06;;;;;;;0.00;0.00;;;2.00;99.90;;;;;;5061854;28;20045;-77
2022/12/07 00:38:33;;;;;;;0.00;0.00;;;2.10;99.90;;;;;;5062136;28;20102;-78
2022/12/07 00:41:01;;;;;;;0.00;0.00;;;2.10;99.90;;;;;;5062356;28;20413;-78
2022/12/07 00:43:27;;;;;;;0.00;0.00;;;2.10;99.90;;;;;;5061898;28;20040;-78
2022/12/07 00:45:54;;;;;;;0.00;0.00;;;2.10;99.90;;;;;;5062120;28;20059;-77
2022/12/07 00:48:21;;;;;;;0.17;0.17;;;2.10;99.90;;;;;;5061984;28;20122;-78
2022/12/07 00:50:47;;;;;;;0.00;0.00;;;2.10;99.90;;;;;;5062400;28;20052;-78
2022/12/07 00:53:13;;;;;;;0.00;0.00;;;2.00;99.90;;;;;;5062147;28;20063;-77
2022/12/07 00:55:39;;;;;;;0.00;0.00;;;2.00;99.90;;;;;;5062585;28;20048;-77
2022/12/07 00:58:04;;;;;;;0.00;0.00;;;2.00;99.90;;;;;;5062268;28;20056;-78
2022/12/07 01:00:30;;;;;;;0.00;0.00;;;2.10;99.90;;;;;;5061726;28;20044;-77
2022/12/07 01:02:56;;;;;;;0.00;0.00;;;2.00;99.90;;;;;;5043837;28;20049;-78
2022/12/07 01:05:22;;;;;;;0.00;0.00;;;2.00;99.90;;;;;;5062198;28;20505;-77
2022/12/07 01:07:48;;;;;;;0.95;0.93;;;1.90;99.90;;;;;;5061938;28;20051;-78
2022/12/07 01:10:14;;;;;;;0.00;0.00;;;1.90;99.90;;;;;;5062554;28;20409;-78
2022/12/07 01:12:40;;;;;;;0.00;0.00;;;2.00;99.90;;;;;;5062006;28;20486;-78
2022/12/07 01:15:07;;;;;;;0.73;0.73;;;2.10;99.90;;;;;;5062005;28;20040;-77
2022/12/07 01:17:33;;;;;;;0.00;0.00;;;2.20;99.90;;;;;;5061640;28;20123;-77
2022/12/07 01:19:59;;;;;;;0.00;0.00;;;2.30;99.90;;;;;;5061554;28;20045;-78
2022/12/07 01:22:25;;;;;;;0.15;0.15;;;2.20;99.90;;;;;;5062162;28;20048;-77
2022/12/07 01:24:50;;;;;;;0.00;0.00;;;2.20;99.90;;;;;;5065461;28;20036;-78
2022/12/07 01:27:16;;;;;;;0.00;0.00;;;2.10;99.90;;;;;;5065135;28;20502;-78
2022/12/07 01:29:42;;;;;;;0.00;0.00;;;2.10;99.90;;;;;;5065509;28;20049;-77
2022/12/07 01:32:08;;;;;;;0.00;0.00;;;2.10;99.90;;;;;;5065911;28;20490;-78
2022/12/07 01:34:33;;;;;;;0.00;0.00;;;2.10;99.90;;;;;;5065319;28;20402;-77
2022/12/07 01:36:59;;;;;;;0.00;0.00;;;2.00;99.90;;;;;;5065304;28;20041;-77
2022/12/07 01:39:25;;;;;;;0.00;0.00;;;2.00;99.90;;;;;;5065210;28;20041;-77
2022/12/07 01:41:51;;;;;;;0.55;0.55;;;1.90;99.90;;;;;;5064826;28;20452;-77
2022/12/07 01:44:22;;;;;;;0.00;0.00;;;1.80;99.90;;;;;;5065997;28;20062;-77
2022/12/07 01:47:04;;;;;;;0.20;0.20;;;1.70;99.90;;;;;;5065448;28;20044;-77
2022/12/07 01:49:32;;;;;;;1.02;0.57;;;1.70;99.90;;;;;;5065300;28;20055;-78
2022/12/07 01:52:21;;;;;;;0.00;0.00;;;1.70;99.90;;;;;;5064832;28;20484;-78
2022/12/07 01:54:50;;;;;;;0.00;0.00;;;1.80;99.90;;;;;;5051963;28;20513;-78
2022/12/07 01:57:16;;;;;;;8.43;1.33;;;1.90;99.90;;;;;;5065288;28;20436;-78
2022/12/07 01:59:44;;;;;;;0.00;0.00;;;2.10;99.90;;;;;;5065081;28;20075;-78
2022/12/07 02:02:18;;;;;;;0.17;0.17;;;2.30;99.90;;;;;;5064937;28;20340;-80
2022/12/07 02:04:45;;;;;;;0.00;0.00;;;2.50;99.90;;;;;;5064962;28;20569;-78
2022/12/07 02:07:10;;;;;;;0.00;0.00;;;2.60;99.90;;;;;;5064638;28;20101;-78
2022/12/07 02:09:36;;;;;;;0.00;0.00;;;2.60;99.90;;;;;;5064010;28;20044;-78
2022/12/07 02:12:03;;;;;;;0.00;0.00;;;2.50;99.90;;;;;;5064597;28;20478;-79
2022/12/07 02:14:28;;;;;;;0.80;0.43;;;2.40;99.90;;;;;;5052105;28;20041;-78
2022/12/07 02:17:22;;;;;;;0.00;0.00;;;2.30;99.90;;;;;;5044816;28;20113;-78
2022/12/07 02:20:03;;;;;;;0.00;0.00;;;2.30;99.90;;;;;;5044477;28;20490;-78
2022/12/07 02:22:31;;;;;;;0.00;0.00;;;2.30;99.90;;;;;;5044669;28;20049;-78
2022/12/07 02:25:35;;;;;;;0.00;0.00;;;2.30;99.90;;;;;;5060172;28;20045;-78
2022/12/07 02:28:27;;;;;;;0.00;0.00;;;2.20;99.90;;;;;;5064180;28;20459;-77
2022/12/07 02:30:58;;;;;;;0.00;0.00;;;2.10;99.90;;;;;;5064451;28;20493;-77
2022/12/07 02:33:35;;;;;;;0.00;0.00;;;2.00;99.90;;;;;;5063715;28;20408;-76
2022/12/07 02:36:17;;;;;;;0.00;0.00;;;2.00;99.90;;;;;;5064133;28;20045;-78
2022/12/07 02:38:55;;;;;;;0.00;0.00;;;2.00;99.90;;;;;;5064118;28;20123;-77
2022/12/07 02:41:33;;;;;;;0.00;0.00;;;2.00;99.90;;;;;;5063127;28;20619;-77
2022/12/07 02:44:03;;;;;;;0.00;0.00;;;2.10;99.90;;;;;;5064062;28;20070;-76
2022/12/07 02:46:37;;;;;;;0.00;0.00;;;2.20;99.90;;;;;;5063359;28;20450;-77
2022/12/07 02:49:34;;;;;;;0.00;0.00;;;2.30;99.90;;;;;;5064078;28;20047;-76
2022/12/07 02:52:00;;;;;;;0.00;0.00;;;2.30;99.90;;;;;;5063883;28;20048;-77
2022/12/07 02:54:25;;;;;;;0.00;0.00;;;2.30;99.90;;;;;;5063674;28;20454;-77
2022/12/07 02:57:32;;;;;;;0.00;0.00;;;2.40;99.90;;;;;;5063617;28;20047;-77
2022/12/07 03:00:15;;;;;;;0.00;0.00;;;2.40;99.90;;;;;;5063506;28;20484;-77
2022/12/07 03:03:03;;;;;;;0.00;0.00;;;2.60;99.90;;;;;;5063487;28;20087;-78
2022/12/07 03:06:00;;;;;;;0.00;0.00;;;2.70;99.90;;;;;;5063347;28;20048;-77
2022/12/07 03:09:01;;;;;;;0.00;0.00;;;2.90;99.90;;;;;;5063594;28;20056;-77
2022/12/07 03:11:46;;;;;;;0.32;0.32;;;2.80;99.90;;;;;;5063843;28;20111;-77
2022/12/07 03:14:35;;;;;;;0.00;0.00;;;2.70;99.90;;;;;;5061163;28;20497;-77
2022/12/07 03:17:09;;;;;;;0.00;0.00;;;2.80;99.90;;;;;;5063170;28;20294;-77
2022/12/07 03:19:37;;;;;;;0.00;0.00;;;2.80;99.90;;;;;;5062938;28;20954;-76
2022/12/07 03:22:08;;;;;;;0.00;0.00;;;2.80;99.90;;;;;;5062679;28;20044;-77
2022/12/07 03:24:40;;;;;;;0.00;0.00;;;2.80;99.90;;;;;;5062294;28;20048;-77
2022/12/07 03:27:11;;;;;;;0.00;0.00;;;2.80;99.90;;;;;;5062957;28;20418;-77
2022/12/07 03:29:42;;;;;;;0.00;0.00;;;2.70;99.90;;;;;;5063214;28;20086;-77
2022/12/07 03:32:27;;;;;;;0.00;0.00;;;2.50;99.90;;;;;;5063236;28;20467;-77
2022/12/07 03:35:18;;;;;;;0.00;0.00;;;2.40;99.90;;;;;;5062807;28;20556;-78
2022/12/07 03:37:57;;;;;;;0.25;0.25;;;2.40;99.90;;;;;;5062788;28;20044;-77
2022/12/07 03:40:33;;;;;;;0.00;0.00;;;2.40;99.90;;;;;;5062275;28;20053;-77
2022/12/07 03:43:01;;;;;;;;;;;2.60;99.90;;;;;;5063383;28;20056;-77
2022/12/07 03:45:36;;;;;;;0.60;0.38;;;2.70;99.90;;;;;;5062347;28;19924;-77
2022/12/07 03:48:07;;;;;;;0.00;0.00;;;3.00;99.90;;;;;;5062821;28;20059;-78
2022/12/07 03:50:46;;;;;;;0.63;0.43;;;3.00;99.90;;;;;;5064192;28;20456;-77
2022/12/07 03:53:20;;;;;;;0.00;0.00;;;3.10;99.90;;;;;;5063599;28;20080;-78
2022/12/07 03:55:48;;;;;;;0.52;0.52;;;3.10;99.90;;;;;;5062664;28;20053;-78
2022/12/07 03:58:18;;;;;;;0.00;0.00;;;3.00;99.90;;;;;;5062863;28;20115;-78
2022/12/07 04:00:44;;;;;;;0.00;0.00;;;3.10;99.90;;;;;;5063075;28;20044;-78
2022/12/07 04:03:11;;;;;;;0.00;0.00;;;3.10;99.90;;;;;;5062846;28;20444;-77
2022/12/07 04:05:38;;;;;;;0.00;0.00;;;3.10;99.90;;;;;;5062686;28;20372;-77
2022/12/07 04:08:03;;;;;;;0.00;0.00;;;3.10;99.90;;;;;;5062340;28;20040;-78
2022/12/07 04:10:29;;;;;;;0.00;0.00;;;3.00;99.90;;;;;;5063145;28;20086;-77
2022/12/07 04:12:55;;;;;;;0.00;0.00;;;3.00;99.90;;;;;;5062609;28;20044;-77
2022/12/07 04:15:21;;;;;;;0.00;0.00;;;3.00;99.90;;;;;;5062517;28;20041;-77
2022/12/07 04:17:46;;;;;;;0.00;0.00;;;3.00;99.90;;;;;;5062706;28;20063;-77
2022/12/07 04:20:12;;;;;;;0.00;0.00;;;2.80;99.90;;;;;;5063017;28;20052;-77
2022/12/07 04:22:38;;;;;;;0.00;0.00;;;2.70;99.90;;;;;;5062378;28;20047;-77
2022/12/07 04:25:04;;;;;;;0.00;0.00;;;2.50;99.90;;;;;;5062157;28;20148;-76
2022/12/07 04:27:30;;;;;;;0.00;0.00;;;2.40;99.90;;;;;;5062211;28;20061;-77
2022/12/07 04:29:56;;;;;;;0.10;0.10;;;2.30;99.90;;;;;;5062294;28;20777;-76
2022/12/07 04:32:22;;;;;;;0.00;0.00;;;2.10;99.90;;;;;;5062640;28;21174;-77
2022/12/07 04:34:48;;;;;;;0.00;0.00;;;2.00;99.90;;;;;;5062071;28;20051;-77
2022/12/07 04:37:14;;;;;;;0.00;0.00;;;1.90;99.90;;;;;;5062244;28;20498;-77
2022/12/07 04:39:40;;;;;;;0.00;0.00;;;1.90;99.90;;;;;;5062104;28;20044;-77
2022/12/07 04:42:05;;;;;;;0.00;0.00;;;1.80;99.90;;;;;;5062491;28;20497;-77
2022/12/07 04:44:31;;;;;;;0.00;0.00;;;1.80;99.90;;;;;;5061730;28;20052;-77
2022/12/07 04:46:57;;;;;;;0.00;0.00;;;1.80;99.90;;;;;;5043149;28;20052;-77
2022/12/07 04:49:24;;;;;;;0.05;0.05;;;1.80;99.90;;;;;;5061980;28;20501;-77
2022/12/07 04:51:51;;;;;;;0.00;0.00;;;1.70;99.90;;;;;;5061752;28;20052;-76
2022/12/07 04:54:17;;;;;;;0.00;0.00;;;1.70;99.90;;;;;;5062569;28;20044;-77
2022/12/07 04:56:43;;;;;;;0.95;0.63;;;1.50;99.90;;;;;;5062607;28;20087;-77
2022/12/07 04:59:11;;;;;;;0.00;0.00;;;1.60;99.90;;;;;;5066083;28;20051;-77
2022/12/07 05:01:37;;;;;;;0.00;0.00;;;1.70;99.90;;;;;;5065898;28;20040;-77
2022/12/07 05:04:09;;;;;;;0.00;0.00;;;2.30;99.90;;;;;;5066422;28;20044;-77
2022/12/07 05:06:35;;;;;;;0.00;0.00;;;2.10;99.90;;;;;;5066007;28;20406;-77
2022/12/07 05:09:01;;;;;;;0.00;0.00;;;2.10;99.90;;;;;;5065785;28;20037;-77
2022/12/07 05:11:39;;;;;;;0.00;0.00;;;2.10;99.90;;;;;;5065758;28;20453;-78
2022/12/07 05:14:06;;;;;;;0.00;0.00;;;2.00;99.90;;;;;;5065651;28;20409;-77
2022/12/07 05:16:32;;;;;;;0.00;0.00;;;1.90;99.90;;;;;;5065712;28;20065;-77
2022/12/07 05:18:58;;;;;;;0.00;0.00;;;1.80;99.90;;;;;;5065665;28;20040;-77
2022/12/07 05:21:24;;;;;;;0.00;0.00;;;1.70;99.90;;;;;;5066163;28;20037;-77
2022/12/07 05:23:50;;;;;;;0.00;0.00;;;1.50;99.90;;;;;;5066505;28;20414;-77
2022/12/07 05:26:16;;;;;;;9.30;1.55;;;1.40;99.90;;;;;;5066278;28;20075;-77
2022/12/07 05:28:41;;;;;;;0.00;0.00;;;1.20;99.90;;;;;;5065216;28;20045;-77
2022/12/07 05:31:07;;;;;;;0.00;0.00;;;1.10;99.90;;;;;;5065094;28;20363;-77
2022/12/07 05:33:33;;;;;;;0.00;0.00;;;1.10;99.90;;;;;;5065114;28;20040;-77
2022/12/07 05:35:58;;;;;;;0.00;0.00;;;1.00;99.90;;;;;;5065108;28;20059;-77
2022/12/07 05:38:25;;;;;;;0.00;0.00;;;0.90;99.90;;;;;;5065319;28;20506;-76
2022/12/07 05:40:50;;;;;;;0.00;0.00;;;0.80;99.90;;;;;;5065505;28;20095;-77
2022/12/07 05:43:16;;;;;;;0.10;0.10;;;0.70;99.90;;;;;;5065143;28;20072;-77
2022/12/07 05:45:42;;;;;;;0.00;0.00;;;0.60;99.90;;;;;;5064401;28;20409;-77
2022/12/07 05:48:08;;;;;;;0.00;0.00;;;0.60;99.90;;;;;;5064838;28;20537;-77
2022/12/07 05:50:33;;;;;;;0.00;0.00;;;0.60;99.90;;;;;;5065306;28;20118;-76
2022/12/07 05:52:59;;;;;;;0.00;0.00;;;0.60;99.90;;;;;;5064245;28;20497;-77
2022/12/07 05:55:25;;;;;;;0.30;0.30;;;0.50;99.90;;;;;;5062125;28;20040;-77
2022/12/07 06:00:53;;;;;;;0.00;0.00;;;0.50;99.90;;;;;;4999572;28;20058;-77
2022/12/07 06:03:19;;;;;;;0.00;0.00;;;0.50;99.90;;;;;;5034404;28;20061;-77
2022/12/07 06:05:44;;;;;;;0.52;0.52;;;0.50;99.90;;;;;;5042058;28;20410;-77
2022/12/07 06:08:10;;;;;;;0.00;0.00;;;0.50;99.90;;;;;;5052776;28;20060;-77
2022/12/07 06:10:36;;;;;;;0.00;0.00;;;0.60;99.90;;;;;;5061455;28;20124;-77
2022/12/07 06:13:01;;;;;;;0.00;0.00;;;0.50;99.90;;;;;;5062716;28;20079;-77
2022/12/07 06:15:27;;;;;;;0.00;0.00;;;0.50;99.90;;;;;;5062224;28;20405;-77
2022/12/07 06:17:52;;;;;;;0.00;0.00;;;0.60;99.90;;;;;;5061543;28;20147;-77
2022/12/07 06:20:18;;;;;;;0.00;0.00;;;0.70;99.90;;;;;;5061581;28;20464;-77
2022/12/07 06:22:44;;;;;;;0.00;0.00;;;0.80;99.90;;;;;;5061482;28;20505;-77
2022/12/07 06:25:09;;;;;;;0.00;0.00;;;1.30;99.90;;;;;;5062544;28;20489;-77
2022/12/07 06:27:35;;;;;;;0.00;0.00;;;0.80;99.90;;;;;;5062997;28;20099;-77
2022/12/07 06:30:06;;;;;;;0.32;0.32;;;0.80;99.90;;;;;;5063883;28;20074;-77
2022/12/07 06:32:33;;;;;;;0.75;0.25;;;1.00;99.90;;;;;;5064861;28;20141;-77
2022/12/07 06:34:59;;;;;;;0.00;0.00;;;1.10;99.90;;;;;;5062797;28;20486;-77
2022/12/07 06:37:25;;;;;;;0.00;0.00;;;1.30;99.90;;;;;;5062582;28;20036;-77
2022/12/07 06:39:51;;;;;;;0.00;0.00;;;1.40;99.90;;;;;;5062635;28;20051;-77
2022/12/07 06:42:16;;;;;;;0.08;0.08;;;1.50;99.90;;;;;;5061681;28;20044;-77
2022/12/07 06:44:42;;;;;;;0.00;0.00;;;1.80;99.90;;;;;;5061112;28;20044;-77
2022/12/07 06:47:09;;;;;;;0.57;0.57;;;1.90;99.90;;;;;;5060935;28;20048;-78
2022/12/07 06:49:34;;;;;;;0.03;0.03;;;2.00;99.90;;;;;;5061194;28;20044;-77
2022/12/07 06:52:00;;;;;;;0.00;0.00;;;2.00;99.90;;;;;;5062571;28;20051;-77
2022/12/07 06:54:26;;;;;;;1.08;1.08;;;1.90;99.90;;;;;;5062758;28;20452;-77
2022/12/07 06:56:51;;;;;;;0.05;0.05;;;1.80;99.90;;;;;;5062885;28;20075;-77
2022/12/07 06:59:17;;;;;;;0.00;0.00;;;1.70;99.90;;;;;;5062227;28;20114;-77
2022/12/07 07:01:43;;;;;;;0.00;0.00;;;1.50;99.90;;;;;;5062390;28;20056;-77
2022/12/07 07:04:08;;;;;;;0.00;0.00;;;1.40;99.90;;;;;;5062469;28;20521;-77
2022/12/07 07:06:34;;;;;;;0.00;0.00;;;1.30;99.90;;;;;;5062483;28;20048;-77
2022/12/07 07:09:00;;;;;;;0.00;0.00;;;1.20;99.90;;;;;;5062977;28;20052;-77
2022/12/07 07:11:26;;;;;;;0.00;0.00;;;1.20;99.90;;;;;;5061865;28;20037;-77
2022/12/07 07:13:51;;;;;;;0.00;0.00;;;1.10;99.90;;;;;;5062388;28;20118;-77
2022/12/07 07:16:17;;;;;;;18.52;1.23;;;1.00;99.90;;;;;;5061935;28;20056;-77
2022/12/07 07:18:43;;;;;;;0.00;0.00;;;0.90;99.90;;;;;;5062248;28;20123;-77
2022/12/07 07:21:09;;;;;;;0.13;0.13;;;0.90;99.90;;;;;;5062074;28;20524;-77
2022/12/07 07:23:34;;;;;;;0.00;0.00;;;1.00;99.90;;;;;;5061756;28;20044;-77
2022/12/07 07:26:00;;;;;;;0.10;0.10;;;1.10;99.90;;;;;;5058342;28;20045;-77
2022/12/07 07:28:26;;;;;;;0.00;0.00;;;1.30;99.90;;;;;;5050368;28;20044;-77
2022/12/07 07:30:51;;;;;;;0.00;0.00;;;1.50;99.90;;;;;;5055730;28;20502;-77
2022/12/07 07:33:17;;;;;;;0.85;0.57;;;1.60;99.90;;;;;;5061944;28;20231;-78
2022/12/07 07:35:43;;;;;;;0.05;0.05;;;2.00;99.90;;;;;;5061855;28;20080;-78
2022/12/07 07:38:09;;;;;;;0.28;0.28;;;2.20;99.90;;;;;;5057672;28;20505;-78
2022/12/07 07:40:34;;;;;;;0.22;0.22;;;2.30;99.90;;;;;;5031556;28;20040;-78
2022/12/07 07:43:00;;;;;;;0.00;0.00;;;2.30;99.90;;;;;;5049588;28;20084;-78
2022/12/07 07:45:26;;;;;;;0.00;0.00;;;2.30;99.90;;;;;;5052182;28;20048;-77
2022/12/07 07:47:52;;;;;;;0.00;0.00;;;2.30;99.90;;;;;;5044230;28;20053;-77
2022/12/07 07:50:19;;;;;;;0.00;0.00;;;2.20;99.90;;;;;;5041784;28;20045;-78
2022/12/07 07:52:45;;;;;;;0.00;0.00;;;2.20;99.90;;;;;;5040747;28;20461;-77
2022/12/07 07:55:11;;;;;;;0.00;0.00;;;2.10;99.90;;;;;;5039695;28;20395;-78
2022/12/07 07:57:38;;;;;;;0.00;0.00;;;2.00;99.90;;;;;;5039665;28;20138;-78
2022/12/07 08:00:08;;;;;;;0.00;0.00;;;1.90;99.90;;;;;;5039347;28;20053;-77
2022/12/07 08:02:34;;;;;;;0.00;0.00;;;1.70;99.90;;;;;;5039093;28;20041;-77
2022/12/07 08:04:59;;;;;;;0.00;0.00;;;1.70;99.90;;;;;;5039301;28;20057;-77
2022/12/07 08:07:26;;;;;;;0.00;0.00;;;1.50;99.90;;;;;;5038745;28;20357;-77
2022/12/07 08:09:52;;;;;;;0.00;0.00;;;1.50;99.90;;;;;;5039075;28;20072;-77
2022/12/07 08:12:18;;;;;;;0.00;0.00;;;1.50;99.90;;;;;;5038931;28;20474;-77
2022/12/07 08:14:43;;;;;;;0.13;0.13;;;1.40;99.90;;;;;;5039034;28;20129;-77
2022/12/07 08:17:09;;;;;;;0.00;0.00;;;1.40;99.90;;;;;;5038927;28;20167;-77
2022/12/07 08:19:35;;;;;;;0.20;0.20;;;1.30;99.90;;;;;;5038916;28;20119;-78
2022/12/07 08:22:00;;;;;;;0.00;0.00;;;1.30;99.90;;;;;;5039200;28;20052;-77
2022/12/07 08:24:26;;;;;;;0.00;0.00;;;1.30;99.90;;;;;;5038402;28;20053;-77
2022/12/07 08:26:52;;;;;;;0.10;0.10;;;1.40;99.90;;;;;;5038277;28;20068;-77
2022/12/07 08:29:18;;;;;;;0.00;0.00;;;1.50;99.90;;;;;;5038982;28;20218;-77
2022/12/07 08:31:43;;;;;;;0.00;0.00;;;1.50;99.90;;;;;;5039156;28;20040;-78
2022/12/07 08:34:16;;;;;;;0.00;0.00;;;1.60;99.90;;;;;;5043152;28;20082;-77
2022/12/07 08:36:42;;;;;;;0.15;0.15;;;2.50;99.90;;;;;;5042643;28;20045;-77
2022/12/07 08:39:07;;;;;;;0.38;0.38;;;1.70;99.90;;;;;;5043695;28;20066;-77
2022/12/07 08:41:33;;;;;;;0.30;0.30;;;1.80;99.90;;;;;;5051756;28;20044;-77
2022/12/07 08:43:59;;;;;;;0.00;0.00;;;1.80;99.90;;;;;;5053063;28;20044;-77
2022/12/07 08:46:26;;;;;;;0.00;0.00;;;1.80;99.90;;;;;;5051329;28;20439;-77
2022/12/07 08:49:33;;;;;;;0.00;0.00;;;1.80;99.90;;;;;;5051785;28;20133;-77
2022/12/07 08:51:59;;;;;;;0.00;0.00;;;1.80;99.90;;;;;;5050226;28;20568;-77
2022/12/07 08:54:25;;;;;;;0.05;0.05;;;1.90;99.90;;;;;;5041968;28;20053;-77
2022/12/07 08:56:53;;;;;;;0.00;0.00;;;1.90;99.90;;;;;;5041831;28;20048;-78
2022/12/07 08:59:20;;;;;;;0.35;0.35;;;2.00;99.90;;;;;;5042269;28;20124;-78
2022/12/07 09:01:46;;;;;;;0.00;0.00;;;2.10;99.90;;;;;;5043662;28;20052;-77
2022/12/07 09:04:11;;;;;;;0.00;0.00;;;2.30;99.90;;;;;;5043874;28;20052;-77
2022/12/07 09:06:38;;;;;;;0.00;0.00;;;2.40;99.90;;;;;;5042289;28;20045;-78
2022/12/07 09:09:04;;;;;;;0.00;0.00;;;2.40;99.90;;;;;;5041800;28;20563;-78
2022/12/07 09:11:30;;;;;;;0.00;0.00;;;2.30;99.90;;;;;;5043925;28;20040;-77
2022/12/07 09:13:56;;;;;;;0.00;0.00;;;2.30;99.90;;;;;;5043506;28;20045;-77
2022/12/07 09:16:21;;;;;;;0.00;0.00;;;2.30;99.90;;;;;;5052134;28;20389;-77
2022/12/07 09:18:47;;;;;;;0.00;0.00;;;2.30;99.90;;;;;;5050107;28;20053;-77
2022/12/07 09:21:13;;;;;;;0.00;0.00;;;2.40;99.90;;;;;;5050118;28;20045;-77
2022/12/07 09:23:38;;;;;;;0.13;0.13;;;2.60;99.90;;;;;;5055235;28;20141;-77
2022/12/07 09:26:05;;;;;;;0.43;0.40;;;3.10;99.90;;;;;;5063042;28;20098;-77
2022/12/07 09:28:31;;;;;;;0.00;0.00;;;3.10;99.90;;;;;;5063285;28;20049;-77
2022/12/07 09:30:56;;;;;;;0.15;0.15;;;3.20;99.90;;;;;;5062982;28;20045;-77
2022/12/07 09:33:22;;;;;;;0.00;0.00;;;3.30;99.90;;;;;;5063024;28;20052;-77
2022/12/07 09:35:49;;;;;;;0.00;0.00;;;3.50;99.90;;;;;;5063355;28;20048;-77
2022/12/07 09:38:16;;;;;;;0.00;0.00;;;3.70;99.90;;;;;;5062861;28;20119;-77
2022/12/07 09:40:43;;;;;;;0.00;0.00;;;4.00;99.90;;;;;;5063247;28;20051;-77
2022/12/07 09:43:19;;;;;;;0.00;0.00;;;4.10;99.90;;;;;;5062332;28;20063;-77
2022/12/07 09:45:46;;;;;;;0.00;0.00;;;4.20;99.90;;;;;;5062484;28;20596;-77
2022/12/07 09:48:21;;;;;;;0.00;0.00;;;4.20;99.90;;;;;;5062643;28;20528;-77
2022/12/07 09:50:49;;;;;;;0.00;0.00;;;4.10;99.90;;;;;;5063161;28;20056;-77
2022/12/07 09:53:25;;;;;;;0.63;0.55;;;4.10;99.90;;;;;;5062286;28;20490;-77
2022/12/07 09:55:51;;;;;;;0.75;0.75;;;4.10;99.90;;;;;;5063044;28;20044;-77
2022/12/07 09:58:22;;;;;;;0.00;0.00;;;4.10;99.90;;;;;;5044900;28;20049;-77
2022/12/07 10:00:53;;;;;;;0.08;0.08;;;4.10;99.90;;;;;;5063005;28;20080;-77
2022/12/07 10:03:19;;;;;;;0.00;0.00;;;4.10;99.90;;;;;;5062734;28;20105;-77
2022/12/07 10:05:48;;;;;;;0.22;0.17;;;4.10;99.90;;;;;;5062356;28;20040;-77
2022/12/07 10:08:16;;;;;;;0.65;0.40;;;4.00;99.90;;;;;;5062056;28;20036;-77
2022/12/07 10:10:43;;;;;;;0.00;0.00;;;4.00;99.90;;;;;;5062484;28;20454;-77
2022/12/07 10:13:13;;;;;;;1.20;0.40;;;4.00;99.90;;;;;;5062450;28;20047;-77
2022/12/07 10:15:43;;;;;;;0.00;0.00;;;4.10;99.90;;;;;;5062601;28;20123;-77
2022/12/07 10:18:37;;;;;;;0.00;0.00;;;4.30;99.90;;;;;;5062699;28;20083;-77
2022/12/07 10:21:03;;;;;;;1.20;1.15;;;4.20;99.90;;;;;;5060821;28;20173;-77
2022/12/07 10:23:28;;;;;;;0.00;0.00;;;4.10;99.90;;;;;;5062254;28;20060;-77
2022/12/07 10:25:54;;;;;;;0.10;0.10;;;4.10;99.90;;;;;;5063240;28;20044;-77
2022/12/07 10:28:21;;;;;;;0.00;0.00;;;4.00;99.90;;;;;;5062987;28;20114;-78
2022/12/07 10:30:53;;;;;;;0.00;0.00;;;3.90;99.90;;;;;;5063135;28;20123;-78
2022/12/07 10:33:28;;;;;;;0.00;0.00;;;4.00;99.90;;;;;;5062881;28;20053;-77
2022/12/07 10:35:54;;;;;;;0.00;0.00;;;3.90;99.90;;;;;;5063222;28;20062;-77
2022/12/07 10:38:19;;;;;;;0.00;0.00;;;3.90;99.90;;;;;;5062548;28;20040;-77
2022/12/07 10:40:45;;;;;;;0.00;0.00;;;3.90;99.90;;;;;;5062410;28;20036;-77
2022/12/07 10:43:18;;;;;;;0.00;0.00;;;4.00;99.90;;;;;;5062606;28;20040;-77
2022/12/07 10:45:47;;;;;;;0.00;0.00;;;4.10;99.90;;;;;;5062989;28;20099;-77
2022/12/07 10:48:54;;;;;;;0.00;0.00;;;4.20;99.90;;;;;;5062472;28;20497;-77
2022/12/07 10:51:27;;;;;;;0.00;0.00;;;4.30;99.90;;;;;;5062866;28;20052;-77
2022/12/07 10:54:04;;;;;;;0.00;0.00;;;4.40;99.90;;;;;;5062323;28;20048;-77
2022/12/07 10:56:49;;;;;;;1.65;1.13;;;4.50;99.90;;;;;;5062075;28;20048;-77
2022/12/07 10:59:15;;;;;;;0.00;0.00;;;4.70;99.90;;;;;;5040806;28;20481;-77
2022/12/07 11:02:12;;;;;;;0.22;0.22;;;4.80;99.90;;;;;;5062176;28;20340;-77
2022/12/07 11:04:54;;;;;;;0.00;0.00;;;4.90;99.90;;;;;;5062227;28;20060;-77
2022/12/07 11:07:22;;;;;;;0.85;0.60;;;4.90;99.90;;;;;;5062632;28;20075;-77
2022/12/07 11:10:07;;;;;;;0.00;0.00;;;4.90;99.90;;;;;;5062200;28;20052;-77
2022/12/07 11:12:52;;;;;;;0.00;0.00;;;4.90;99.90;;;;;;5062076;28;20056;-77
2022/12/07 11:15:47;;;;;;;0.60;0.45;;;4.90;99.90;;;;;;5061899;28;20577;-77
2022/12/07 11:18:31;;;;;;;0.00;0.00;;;4.90;99.90;;;;;;5061327;28;20524;-77
2022/12/07 11:21:09;;;;;;;0.00;0.00;;;4.80;99.90;;;;;;5061919;28;20378;-77
2022/12/07 11:23:47;;;;;;;1.48;0.60;;;4.80;99.90;;;;;;5061673;28;20055;-77
2022/12/07 11:26:41;;;;;;;0.00;0.00;;;4.70;99.90;;;;;;5062053;28;20509;-77
2022/12/07 11:29:12;;;;;;;0.00;0.00;;;4.60;99.90;;;;;;5062133;28;20408;-77
2022/12/07 11:31:49;;;;;;;0.00;0.00;;;4.50;99.90;;;;;;5062153;28;20474;-77
2022/12/07 11:34:23;;;;;;;0.00;0.00;;;4.30;99.90;;;;;;5062406;28;20108;-77
2022/12/07 11:36:53;;;;;;;0.00;0.00;;;4.10;99.90;;;;;;5062177;28;20056;-78
2022/12/07 11:39:20;;;;;;;0.30;0.30;;;4.00;99.90;;;;;;5061877;28;20044;-77
2022/12/07 11:41:49;;;;;;;0.00;0.00;;;3.80;99.90;;;;;;5061708;28;20064;-77
2022/12/07 11:44:34;;;;;;;0.00;0.00;;;3.90;99.90;;;;;;5061779;28;20075;-77
2022/12/07 11:47:16;;;;;;;0.00;0.00;;;3.90;99.90;;;;;;5061575;28;20059;-77
2022/12/07 11:50:17;;;;;;;0.00;0.00;;;4.00;99.90;;;;;;5061805;28;20457;-77
2022/12/07 11:52:57;;;;;;;0.00;0.00;;;4.10;99.90;;;;;;5060879;28;20052;-78
2022/12/07 11:56:00;;;;;;;0.00;0.00;;;4.20;99.90;;;;;;5061534;28;20106;-78
2022/12/07 11:58:37;;;;;;;0.00;0.00;;;4.30;99.90;;;;;;5061024;28;20052;-78
2022/12/07 12:01:17;;;;;;;0.00;0.00;;;4.40;99.90;;;;;;5061175;28;20069;-78
2022/12/07 12:03:47;;;;;;;0.00;0.00;;;4.60;99.90;;;;;;5061166;28;20056;-78
2022/12/07 12:06:13;;;;;;;0.00;0.00;;;4.80;99.90;;;;;;5060881;28;20394;-78
2022/12/07 12:08:46;;;;;;;0.00;0.00;;;4.90;99.90;;;;;;5061351;28;20044;-77
2022/12/07 12:11:18;;;;;;;0.00;0.00;;;5.00;99.90;;;;;;5061448;28;20116;-78
2022/12/07 12:14:00;;;;;;;0.00;0.00;;;5.20;99.90;;;;;;5061021;28;20609;-78
2022/12/07 12:16:38;;;;;;;0.00;0.00;;;5.30;99.90;;;;;;5061586;28;20048;-78
2022/12/07 12:19:42;;;;;;;0.00;0.00;;;5.30;99.90;;;;;;5061152;28;20048;-78
2022/12/07 12:22:20;;;;;;;0.00;0.00;;;5.40;99.90;;;;;;5061429;28;20052;-78
2022/12/07 12:24:51;;;;;;;0.00;0.00;;;5.20;99.90;;;;;;5061298;28;20513;-78
2022/12/07 12:27:35;;;;;;;0.00;0.00;;;5.10;99.90;;;;;;5061071;28;20056;-77
2022/12/07 12:30:04;;;;;;;0.00;0.00;;;5.10;99.90;;;;;;5060934;28;20120;-77
2022/12/07 12:32:40;;;;;;;3.90;1.02;;;5.00;99.90;;;;;;5061593;28;20064;-77
2022/12/07 12:35:37;;;;;;;0.10;0.10;;;4.90;99.90;;;;;;5061552;28;20532;-77
2022/12/07 12:38:35;;;;;;;0.00;0.00;;;4.80;99.90;;;;;;5061553;28;20402;-77
2022/12/07 12:41:02;;;;;;;0.22;0.10;;;4.70;99.90;;;;;;5061541;28;20048;-78
2022/12/07 12:43:49;;;;;;;2.20;0.70;;;4.60;99.90;;;;;;5061342;28;20075;-78
2022/12/07 12:46:35;;;;;;;0.00;0.00;;;4.50;99.90;;;;;;5060899;28;20417;-78
2022/12/07 12:49:16;;;;;;;0.00;0.00;;;4.50;99.90;;;;;;5061360;28;20052;-78
2022/12/07 12:52:20;;;;;;;0.00;0.00;;;4.40;99.90;;;;;;5061320;28;20052;-78
2022/12/07 12:55:12;;;;;;;0.10;0.10;;;4.40;99.90;;;;;;5061017;28;20052;-78
2022/12/07 12:57:38;;;;;;;0.00;0.00;;;4.50;99.90;;;;;;5061119;28;20057;-78
2022/12/07 13:00:12;;;;;;;0.00;0.00;;;4.50;99.90;;;;;;5061124;28;20135;-78
2022/12/07 13:02:47;;;;;;;0.00;0.00;;;4.60;99.90;;;;;;5061197;28;20131;-78
2022/12/07 13:05:13;;;;;;;0.00;0.00;;;4.70;99.90;;;;;;5061750;28;20405;-78
2022/12/07 13:07:45;;;;;;;0.00;0.00;;;4.80;99.90;;;;;;5060977;28;20040;-78
2022/12/07 13:10:34;;;;;;;0.22;0.22;;;4.80;99.90;;;;;;5061371;28;20131;-78
2022/12/07 13:13:15;;;;;;;0.10;0.10;;;4.90;99.90;;;;;;5061226;28;20537;-78
2022/12/07 13:15:53;;;;;;;0.00;0.00;;;4.90;99.90;;;;;;5061302;28;20056;-78
2022/12/07 13:18:28;;;;;;;0.00;0.00;;;4.90;99.90;;;;;;5063089;28;20052;-77
2022/12/07 13:21:18;;;;;;;0.00;0.00;;;4.90;99.90;;;;;;5064707;28;20048;-78